createdAt,value
2022-08-10T00:00:53.676Z,6.55
2022-08-10T00:05:58.640Z,6.57
2022-08-10T00:11:01.954Z,8.43
2022-08-10T00:16:07.249Z,6.93
2022-08-10T00:21:13.037Z,5.28
2022-08-10T00:26:16.394Z,6.10
2022-08-10T00:31:21.757Z,8.40
2022-08-10T00:36:26.465Z,5.43
2022-08-10T00:41:35.140Z,6.65
2022-08-10T00:46:38.450Z,5.72
2022-08-10T00:51:48.750Z,7.18
2022-08-10T00:57:16.804Z,6.05
2022-08-10T01:02:15.794Z,12.07
2022-08-10T01:07:30.929Z,7.55
2022-08-10T01:12:42.497Z,8.18
2022-08-10T01:17:53.505Z,6.90
2022-08-10T01:23:38.474Z,5.32
2022-08-10T01:28:56.985Z,6.63
2022-08-10T01:34:08.837Z,7.78
2022-08-10T01:39:17.060Z,5.75
2022-08-10T01:44:29.506Z,7.57
2022-08-10T01:49:36.022Z,7.13
2022-08-10T01:54:42.690Z,7.47
2022-08-10T01:59:58.534Z,5.85
2022-08-10T02:05:11.337Z,5.63
2022-08-10T02:10:19.296Z,5.18
2022-08-10T02:15:23.997Z,5.05
2022-08-10T02:20:33.682Z,7.30
2022-08-10T02:25:41.774Z,6.13
2022-08-10T02:30:48.208Z,8.63
2022-08-10T02:35:56.189Z,8.23
2022-08-10T02:45:02.154Z,6.63
2022-08-10T02:46:35.090Z,8.82
2022-08-10T02:52:06.855Z,9.75
2022-08-10T02:57:15.450Z,10.20
2022-08-10T03:02:26.525Z,9.02
2022-08-10T03:07:45.094Z,8.30
2022-08-10T03:13:01.267Z,13.88
2022-08-10T03:18:06.525Z,17.45
2022-08-10T03:23:15.443Z,12.57
2022-08-10T03:28:20.738Z,7.85
2022-08-10T03:33:28.371Z,7.60
2022-08-10T03:38:33.197Z,10.07
2022-08-10T03:43:37.486Z,6.85
2022-08-10T03:48:49.362Z,8.38
2022-08-10T03:54:04.280Z,10.93
2022-08-10T03:59:12.048Z,9.32
2022-08-10T04:04:21.000Z,6.78
2022-08-10T04:09:53.353Z,7.25
2022-08-10T04:14:53.961Z,7.18
2022-08-10T04:20:00.509Z,11.65
2022-08-10T04:25:07.788Z,10.70
2022-08-10T04:30:12.187Z,10.13
2022-08-10T04:35:20.045Z,12.15
2022-08-10T04:40:30.260Z,7.60
2022-08-10T04:45:47.683Z,9.55
2022-08-10T04:50:54.219Z,10.45
2022-08-10T04:55:59.621Z,7.15
2022-08-10T05:01:02.986Z,9.48
2022-08-10T05:06:07.005Z,7.45
2022-08-10T05:11:11.706Z,8.60
2022-08-10T05:16:32.151Z,20.23
2022-08-10T05:22:03.058Z,9.98
2022-08-10T05:27:10.144Z,10.50
2022-08-10T05:32:14.162Z,10.13
2022-08-10T05:38:09.731Z,11.20
2022-08-10T05:42:43.649Z,12.05
2022-08-10T05:48:55.065Z,13.25
2022-08-10T05:53:59.660Z,11.20
2022-08-10T05:58:35.762Z,15.63
2022-08-10T06:03:44.673Z,12.82
2022-08-10T06:08:50.525Z,17.87
2022-08-10T06:14:16.204Z,18.50
2022-08-10T06:19:22.628Z,20.02
2022-08-10T06:24:30.131Z,22.05
2022-08-10T06:29:38.950Z,29.25
2022-08-10T06:34:47.633Z,25.02
2022-08-10T06:39:51.092Z,34.88
2022-08-10T06:45:00.213Z,27.30
2022-08-10T06:55:16.879Z,20.33
2022-08-10T07:00:27.694Z,15.23
2022-08-10T07:05:42.969Z,8.18
2022-08-10T07:10:48.620Z,10.52
2022-08-10T07:15:59.454Z,7.97
2022-08-10T07:21:06.414Z,3.60
2022-08-10T07:26:11.648Z,5.45
2022-08-10T07:31:34.859Z,4.47
2022-08-10T07:36:45.893Z,6.35
2022-08-10T07:41:52.834Z,5.90
2022-08-10T07:47:04.289Z,2.40
2022-08-10T07:52:08.578Z,1.93
2022-08-10T07:57:31.134Z,4.13
2022-08-10T08:02:42.788Z,3.45
2022-08-10T08:07:47.754Z,2.53
2022-08-10T08:12:52.929Z,3.20
2022-08-10T08:18:00.970Z,4.28
2022-08-10T08:24:05.992Z,3.50
2022-08-10T08:28:30.430Z,3.17
2022-08-10T08:33:42.582Z,5.35
2022-08-10T08:38:48.428Z,5.32
2022-08-10T08:44:05.439Z,5.00
2022-08-10T08:50:08.019Z,4.82
2022-08-10T08:56:03.301Z,2.60
2022-08-10T09:00:43.285Z,2.40
2022-08-10T09:05:58.824Z,2.60
2022-08-10T09:11:15.189Z,4.40
2022-08-10T09:16:25.592Z,5.72
2022-08-10T09:21:43.325Z,3.80
2022-08-10T09:27:09.210Z,3.00
2022-08-10T09:36:16.854Z,2.25
2022-08-10T09:38:01.810Z,3.60
2022-08-10T09:43:25.978Z,2.28
2022-08-10T09:48:36.884Z,2.75
2022-08-10T09:53:53.801Z,7.97
2022-08-10T09:59:47.314Z,3.00
2022-08-10T10:04:41.974Z,5.10
2022-08-10T10:09:56.383Z,6.10
2022-08-10T10:15:24.277Z,4.40
2022-08-10T10:20:38.579Z,8.02
2022-08-10T10:25:50.866Z,3.13
2022-08-10T10:35:55.057Z,2.65
2022-08-10T10:41:03.913Z,8.25
2022-08-10T10:46:23.303Z,8.55
2022-08-10T10:51:31.714Z,7.82
2022-08-10T10:56:51.575Z,3.90
2022-08-10T11:02:05.977Z,3.55
2022-08-10T11:07:21.821Z,4.28
2022-08-10T11:12:32.764Z,2.40
2022-08-10T11:17:44.238Z,4.70
2022-08-10T11:22:59.094Z,4.35
2022-08-10T11:28:13.086Z,6.75
2022-08-10T11:33:30.966Z,3.92
2022-08-10T11:39:11.000Z,3.03
2022-08-10T11:44:13.057Z,2.33
2022-08-10T11:49:28.424Z,4.60
2022-08-10T11:54:43.407Z,3.80
2022-08-10T11:59:59.405Z,6.03
2022-08-10T12:05:10.070Z,3.08
2022-08-10T12:10:16.483Z,4.60
2022-08-10T12:15:24.349Z,3.60
2022-08-10T12:20:32.665Z,4.25
2022-08-10T12:25:56.578Z,4.85
2022-08-10T12:31:04.736Z,5.93
2022-08-10T12:36:18.161Z,3.08
2022-08-10T12:41:44.635Z,5.55
2022-08-10T12:46:58.431Z,1.58
2022-08-10T12:52:07.667Z,3.17
2022-08-10T13:02:22.778Z,2.58
2022-08-10T13:08:25.919Z,4.75
2022-08-10T13:12:57.974Z,5.25
2022-08-10T13:18:04.648Z,3.03
2022-08-10T13:23:15.679Z,5.45
2022-08-10T13:28:35.790Z,4.45
2022-08-10T13:34:39.448Z,5.18
2022-08-10T13:39:14.295Z,2.63
2022-08-10T13:44:30.045Z,4.82
2022-08-10T13:49:46.521Z,4.50
2022-08-10T13:54:51.214Z,4.28
2022-08-10T14:00:34.870Z,1.23
2022-08-10T14:05:27.915Z,2.50
2022-08-10T14:11:09.630Z,1.48
2022-08-10T14:16:07.358Z,3.85
2022-08-10T14:21:11.298Z,3.23
2022-08-10T14:26:19.566Z,5.55
2022-08-10T14:31:30.192Z,2.50
2022-08-10T14:36:41.784Z,1.27
2022-08-10T14:42:05.696Z,4.22
2022-08-10T14:47:51.635Z,4.55
2022-08-10T14:52:44.153Z,4.47
2022-08-10T14:58:20.096Z,3.22
2022-08-10T15:04:02.060Z,1.40
2022-08-10T15:08:47.060Z,7.80
2022-08-10T15:14:15.240Z,8.10
2022-08-10T15:20:03.294Z,4.93
2022-08-10T15:25:04.709Z,0.70
2022-08-10T15:30:10.653Z,8.38
2022-08-10T15:35:33.871Z,3.40
2022-08-10T15:40:51.353Z,4.32
2022-08-10T15:46:05.996Z,6.18
2022-08-10T15:51:22.969Z,3.85
2022-08-10T15:56:41.153Z,2.83
2022-08-10T16:02:14.759Z,1.85
2022-08-10T16:07:17.980Z,3.40
2022-08-10T16:12:29.031Z,3.20
2022-08-10T16:17:54.057Z,1.52
2022-08-10T16:23:04.047Z,6.30
2022-08-10T16:28:09.675Z,1.10
2022-08-10T16:33:52.613Z,1.98
2022-08-10T16:38:52.799Z,2.63
2022-08-10T16:44:00.401Z,6.00
2022-08-10T16:49:04.057Z,4.18
2022-08-10T16:54:11.151Z,2.67
2022-08-10T16:59:20.541Z,2.67
2022-08-10T17:04:26.777Z,2.95
2022-08-10T17:09:35.310Z,1.75
2022-08-10T17:14:40.421Z,3.80
2022-08-10T17:19:46.194Z,3.50
2022-08-10T17:24:55.761Z,4.15
2022-08-10T17:30:03.839Z,8.77
2022-08-10T17:35:13.552Z,6.50
2022-08-10T17:40:22.508Z,7.28
2022-08-10T17:45:46.223Z,3.17
2022-08-10T17:50:53.363Z,7.45
2022-08-10T17:56:01.397Z,2.83
2022-08-10T18:01:40.684Z,3.83
2022-08-10T18:06:32.575Z,7.25
2022-08-10T18:11:44.150Z,7.40
2022-08-10T18:16:54.919Z,8.38
2022-08-10T18:22:04.141Z,4.22
2022-08-10T18:27:14.774Z,5.07
2022-08-10T18:32:21.552Z,4.53
2022-08-10T18:37:28.064Z,2.83
2022-08-10T18:42:40.563Z,7.53
2022-08-10T18:47:56.107Z,8.15
2022-08-10T18:53:13.036Z,7.10
2022-08-10T18:58:44.264Z,3.83
2022-08-10T19:04:11.236Z,9.23
2022-08-10T19:09:45.865Z,5.93
2022-08-10T19:14:59.053Z,3.78
2022-08-10T19:20:12.174Z,5.95
2022-08-10T19:26:33.010Z,6.47
2022-08-10T19:30:56.799Z,3.03
2022-08-10T19:36:10.992Z,5.65
2022-08-10T19:41:21.426Z,9.38
2022-08-10T19:51:52.714Z,2.40
2022-08-10T19:57:04.531Z,3.28
2022-08-10T20:02:12.308Z,4.35
2022-08-10T20:07:24.389Z,6.68
2022-08-10T20:12:41.067Z,4.03
2022-08-10T20:17:55.149Z,2.83
2022-08-10T20:23:08.454Z,5.90
2022-08-10T20:28:19.735Z,4.10
2022-08-10T20:33:34.084Z,7.07
2022-08-10T20:38:46.926Z,3.58
2022-08-10T20:44:01.447Z,5.63
2022-08-10T20:49:27.538Z,3.08
2022-08-10T20:54:36.483Z,5.50
2022-08-10T21:00:04.290Z,6.57
2022-08-10T21:05:24.872Z,5.85
2022-08-10T21:10:51.164Z,4.72
2022-08-10T21:16:04.496Z,5.88
2022-08-10T21:21:40.992Z,7.25
2022-08-10T21:26:56.554Z,18.73
2022-08-10T21:32:12.061Z,3.75
2022-08-10T21:37:22.765Z,5.45
2022-08-10T21:42:54.150Z,4.40
2022-08-10T21:48:30.167Z,7.25
2022-08-10T21:53:57.440Z,3.42
2022-08-10T21:59:22.324Z,4.30
2022-08-10T22:04:45.496Z,5.90
2022-08-10T22:10:12.058Z,6.28
2022-08-10T22:16:05.468Z,4.43
2022-08-10T22:21:27.106Z,3.20
2022-08-10T22:27:06.100Z,7.85
2022-08-10T22:32:38.116Z,4.47
2022-08-10T22:38:11.137Z,4.53
2022-08-10T22:43:42.943Z,5.85
2022-08-10T22:49:02.472Z,4.47
2022-08-10T22:54:34.441Z,3.35
2022-08-10T22:59:39.502Z,6.95
2022-08-10T23:04:48.295Z,4.10
2022-08-10T23:10:00.700Z,2.80
2022-08-10T23:15:26.660Z,3.97
2022-08-10T23:20:31.978Z,3.85
2022-08-10T23:25:43.752Z,2.78
2022-08-10T23:31:03.955Z,2.75
2022-08-10T23:36:33.661Z,4.65
2022-08-10T23:41:38.196Z,2.80
2022-08-10T23:46:44.458Z,4.30
2022-08-10T23:51:55.698Z,7.35
2022-08-10T23:57:01.926Z,5.70
